sensor_id;sensor_type;location;lat;lon;timestamp;P1;durP1;ratioP1;P2;durP2;ratioP2
52035;SDS011;38046;49.448;32.074;2023-04-06T00:01:33;5.03;;;3.17;;
52035;SDS011;38046;49.448;32.074;2023-04-06T00:03:59;4.13;;;3.30;;
52035;SDS011;38046;49.448;32.074;2023-04-06T00:06:25;4.63;;;3.08;;
52035;SDS011;38046;49.448;32.074;2023-04-06T00:08:51;4.10;;;3.30;;
52035;SDS011;38046;49.448;32.074;2023-04-06T00:11:17;3.25;;;2.90;;
52035;SDS011;38046;49.448;32.074;2023-04-06T00:13:43;3.50;;;2.63;;
52035;SDS011;38046;49.448;32.074;2023-04-06T00:16:09;3.72;;;2.97;;
52035;SDS011;38046;49.448;32.074;2023-04-06T00:18:35;6.95;;;3.92;;
52035;SDS011;38046;49.448;32.074;2023-04-06T00:21:01;4.97;;;3.53;;
52035;SDS011;38046;49.448;32.074;2023-04-06T00:23:27;5.63;;;3.47;;
52035;SDS011;38046;49.448;32.074;2023-04-06T00:25:52;4.53;;;3.00;;
52035;SDS011;38046;49.448;32.074;2023-04-06T00:28:18;3.63;;;3.25;;
52035;SDS011;38046;49.448;32.074;2023-04-06T00:30:50;4.50;;;3.42;;
52035;SDS011;38046;49.448;32.074;2023-04-06T00:33:17;5.80;;;3.60;;
52035;SDS011;38046;49.448;32.074;2023-04-06T00:35:43;5.35;;;3.08;;
52035;SDS011;38046;49.448;32.074;2023-04-06T00:38:09;3.83;;;3.10;;
52035;SDS011;38046;49.448;32.074;2023-04-06T00:40:35;4.65;;;3.22;;
52035;SDS011;38046;49.448;32.074;2023-04-06T00:43:00;3.97;;;3.25;;
52035;SDS011;38046;49.448;32.074;2023-04-06T00:45:26;3.85;;;3.00;;
52035;SDS011;38046;49.448;32.074;2023-04-06T00:47:52;4.30;;;2.83;;
52035;SDS011;38046;49.448;32.074;2023-04-06T00:50:18;3.58;;;2.80;;
52035;SDS011;38046;49.448;32.074;2023-04-06T00:52:43;4.93;;;3.20;;
52035;SDS011;38046;49.448;32.074;2023-04-06T00:55:09;3.38;;;3.08;;
52035;SDS011;38046;49.448;32.074;2023-04-06T00:57:35;5.20;;;3.55;;
52035;SDS011;38046;49.448;32.074;2023-04-06T01:00:01;5.13;;;3.30;;
52035;SDS011;38046;49.448;32.074;2023-04-06T01:02:27;3.60;;;2.92;;
52035;SDS011;38046;49.448;32.074;2023-04-06T01:04:53;4.82;;;2.88;;
52035;SDS011;38046;49.448;32.074;2023-04-06T01:07:19;4.65;;;3.40;;
52035;SDS011;38046;49.448;32.074;2023-04-06T01:09:45;4.40;;;2.90;;
52035;SDS011;38046;49.448;32.074;2023-04-06T01:12:11;4.10;;;3.45;;
52035;SDS011;38046;49.448;32.074;2023-04-06T01:14:36;5.35;;;3.80;;
52035;SDS011;38046;49.448;32.074;2023-04-06T01:17:02;4.18;;;3.50;;
52035;SDS011;38046;49.448;32.074;2023-04-06T01:19:28;5.65;;;3.53;;
52035;SDS011;38046;49.448;32.074;2023-04-06T01:21:53;5.75;;;3.45;;
52035;SDS011;38046;49.448;32.074;2023-04-06T01:24:20;4.03;;;3.50;;
52035;SDS011;38046;49.448;32.074;2023-04-06T01:26:46;5.13;;;3.72;;
52035;SDS011;38046;49.448;32.074;2023-04-06T01:29:11;3.85;;;3.53;;
52035;SDS011;38046;49.448;32.074;2023-04-06T01:31:38;5.45;;;3.88;;
52035;SDS011;38046;49.448;32.074;2023-04-06T01:34:04;4.50;;;3.65;;
52035;SDS011;38046;49.448;32.074;2023-04-06T01:36:30;5.60;;;4.05;;
52035;SDS011;38046;49.448;32.074;2023-04-06T01:38:56;6.93;;;3.95;;
52035;SDS011;38046;49.448;32.074;2023-04-06T01:41:21;5.35;;;3.80;;
52035;SDS011;38046;49.448;32.074;2023-04-06T01:43:47;6.25;;;3.97;;
52035;SDS011;38046;49.448;32.074;2023-04-06T01:46:14;4.70;;;3.83;;
52035;SDS011;38046;49.448;32.074;2023-04-06T01:48:40;5.60;;;3.90;;
52035;SDS011;38046;49.448;32.074;2023-04-06T01:51:06;6.15;;;3.75;;
52035;SDS011;38046;49.448;32.074;2023-04-06T01:53:31;5.53;;;3.97;;
52035;SDS011;38046;49.448;32.074;2023-04-06T01:55:57;5.18;;;3.75;;
52035;SDS011;38046;49.448;32.074;2023-04-06T01:58:23;3.78;;;3.38;;
52035;SDS011;38046;49.448;32.074;2023-04-06T02:00:48;9.13;;;3.47;;
52035;SDS011;38046;49.448;32.074;2023-04-06T02:03:14;4.28;;;3.20;;
52035;SDS011;38046;49.448;32.074;2023-04-06T02:05:39;4.40;;;3.65;;
52035;SDS011;38046;49.448;32.074;2023-04-06T02:08:05;5.82;;;3.85;;
52035;SDS011;38046;49.448;32.074;2023-04-06T02:10:32;5.45;;;3.58;;
52035;SDS011;38046;49.448;32.074;2023-04-06T02:12:58;4.28;;;3.35;;
52035;SDS011;38046;49.448;32.074;2023-04-06T02:15:25;7.13;;;3.97;;
52035;SDS011;38046;49.448;32.074;2023-04-06T02:17:51;9.50;;;3.80;;
52035;SDS011;38046;49.448;32.074;2023-04-06T02:20:17;4.82;;;3.58;;
52035;SDS011;38046;49.448;32.074;2023-04-06T02:22:43;7.50;;;4.10;;
52035;SDS011;38046;49.448;32.074;2023-04-06T02:25:09;4.57;;;3.45;;
52035;SDS011;38046;49.448;32.074;2023-04-06T02:27:35;4.75;;;3.45;;
52035;SDS011;38046;49.448;32.074;2023-04-06T02:30:01;4.35;;;3.17;;
52035;SDS011;38046;49.448;32.074;2023-04-06T02:32:27;5.60;;;3.50;;
52035;SDS011;38046;49.448;32.074;2023-04-06T02:34:53;4.88;;;3.40;;
52035;SDS011;38046;49.448;32.074;2023-04-06T02:37:19;4.40;;;3.53;;
52035;SDS011;38046;49.448;32.074;2023-04-06T02:39:45;4.55;;;3.70;;
52035;SDS011;38046;49.448;32.074;2023-04-06T02:42:10;4.07;;;3.67;;
52035;SDS011;38046;49.448;32.074;2023-04-06T02:44:36;4.97;;;4.03;;
52035;SDS011;38046;49.448;32.074;2023-04-06T02:47:02;5.07;;;3.88;;
52035;SDS011;38046;49.448;32.074;2023-04-06T02:49:27;5.88;;;3.85;;
52035;SDS011;38046;49.448;32.074;2023-04-06T02:51:53;4.80;;;3.67;;
52035;SDS011;38046;49.448;32.074;2023-04-06T02:54:18;4.18;;;3.50;;
52035;SDS011;38046;49.448;32.074;2023-04-06T02:56:44;4.75;;;3.65;;
52035;SDS011;38046;49.448;32.074;2023-04-06T02:59:10;4.43;;;3.67;;
52035;SDS011;38046;49.448;32.074;2023-04-06T03:01:36;4.47;;;3.60;;
52035;SDS011;38046;49.448;32.074;2023-04-06T03:04:02;4.97;;;3.75;;
52035;SDS011;38046;49.448;32.074;2023-04-06T03:06:28;5.78;;;4.13;;
52035;SDS011;38046;49.448;32.074;2023-04-06T03:08:53;5.65;;;3.72;;
52035;SDS011;38046;49.448;32.074;2023-04-06T03:11:19;6.05;;;4.20;;
52035;SDS011;38046;49.448;32.074;2023-04-06T03:13:45;6.00;;;3.67;;
52035;SDS011;38046;49.448;32.074;2023-04-06T03:16:11;5.97;;;3.90;;
52035;SDS011;38046;49.448;32.074;2023-04-06T03:18:36;9.13;;;3.92;;
52035;SDS011;38046;49.448;32.074;2023-04-06T03:21:02;6.80;;;4.10;;
52035;SDS011;38046;49.448;32.074;2023-04-06T03:23:28;5.65;;;4.05;;
52035;SDS011;38046;49.448;32.074;2023-04-06T03:25:53;6.03;;;4.28;;
52035;SDS011;38046;49.448;32.074;2023-04-06T03:28:19;6.32;;;4.20;;
52035;SDS011;38046;49.448;32.074;2023-04-06T03:30:46;6.25;;;4.40;;
52035;SDS011;38046;49.448;32.074;2023-04-06T03:33:11;5.63;;;3.95;;
52035;SDS011;38046;49.448;32.074;2023-04-06T03:35:37;5.78;;;4.32;;
52035;SDS011;38046;49.448;32.074;2023-04-06T03:38:03;6.45;;;4.13;;
52035;SDS011;38046;49.448;32.074;2023-04-06T03:40:30;6.80;;;4.18;;
52035;SDS011;38046;49.448;32.074;2023-04-06T03:42:56;5.18;;;4.10;;
52035;SDS011;38046;49.448;32.074;2023-04-06T03:45:22;6.97;;;4.50;;
52035;SDS011;38046;49.448;32.074;2023-04-06T03:47:47;7.78;;;4.30;;
52035;SDS011;38046;49.448;32.074;2023-04-06T03:50:13;5.60;;;4.22;;
52035;SDS011;38046;49.448;32.074;2023-04-06T03:52:39;5.72;;;4.18;;
52035;SDS011;38046;49.448;32.074;2023-04-06T03:55:04;6.40;;;5.05;;
52035;SDS011;38046;49.448;32.074;2023-04-06T03:57:31;7.32;;;4.85;;
52035;SDS011;38046;49.448;32.074;2023-04-06T03:59:56;4.90;;;4.30;;
52035;SDS011;38046;49.448;32.074;2023-04-06T04:02:22;5.95;;;4.53;;
52035;SDS011;38046;49.448;32.074;2023-04-06T04:04:48;6.75;;;4.45;;
52035;SDS011;38046;49.448;32.074;2023-04-06T04:07:13;7.05;;;4.70;;
52035;SDS011;38046;49.448;32.074;2023-04-06T04:09:39;8.68;;;4.68;;
52035;SDS011;38046;49.448;32.074;2023-04-06T04:12:05;6.70;;;4.95;;
52035;SDS011;38046;49.448;32.074;2023-04-06T04:14:30;7.03;;;4.88;;
52035;SDS011;38046;49.448;32.074;2023-04-06T04:16:56;7.32;;;4.82;;
52035;SDS011;38046;49.448;32.074;2023-04-06T04:19:22;7.13;;;4.38;;
52035;SDS011;38046;49.448;32.074;2023-04-06T04:21:47;10.63;;;5.35;;
52035;SDS011;38046;49.448;32.074;2023-04-06T04:24:13;6.82;;;4.57;;
52035;SDS011;38046;49.448;32.074;2023-04-06T04:26:39;6.75;;;4.72;;
52035;SDS011;38046;49.448;32.074;2023-04-06T04:29:05;6.90;;;4.60;;
52035;SDS011;38046;49.448;32.074;2023-04-06T04:31:31;6.05;;;4.60;;
52035;SDS011;38046;49.448;32.074;2023-04-06T04:33:57;8.30;;;5.15;;
52035;SDS011;38046;49.448;32.074;2023-04-06T04:36:24;6.10;;;4.82;;
52035;SDS011;38046;49.448;32.074;2023-04-06T04:38:50;5.70;;;4.45;;
52035;SDS011;38046;49.448;32.074;2023-04-06T04:41:17;7.28;;;4.50;;
52035;SDS011;38046;49.448;32.074;2023-04-06T04:43:42;7.30;;;5.07;;
52035;SDS011;38046;49.448;32.074;2023-04-06T04:46:08;7.88;;;4.70;;
52035;SDS011;38046;49.448;32.074;2023-04-06T04:48:34;5.68;;;4.60;;
52035;SDS011;38046;49.448;32.074;2023-04-06T04:51:00;7.47;;;4.90;;
52035;SDS011;38046;49.448;32.074;2023-04-06T04:53:25;7.28;;;5.18;;
52035;SDS011;38046;49.448;32.074;2023-04-06T04:55:51;6.40;;;4.97;;
52035;SDS011;38046;49.448;32.074;2023-04-06T04:58:17;9.23;;;5.82;;
52035;SDS011;38046;49.448;32.074;2023-04-06T05:00:44;8.15;;;5.38;;
52035;SDS011;38046;49.448;32.074;2023-04-06T05:03:14;8.88;;;5.70;;
52035;SDS011;38046;49.448;32.074;2023-04-06T05:05:46;9.02;;;6.07;;
52035;SDS011;38046;49.448;32.074;2023-04-06T05:08:12;8.05;;;5.85;;
52035;SDS011;38046;49.448;32.074;2023-04-06T05:10:37;9.95;;;6.18;;
52035;SDS011;38046;49.448;32.074;2023-04-06T05:13:03;8.48;;;6.32;;
52035;SDS011;38046;49.448;32.074;2023-04-06T05:15:29;9.82;;;6.72;;
52035;SDS011;38046;49.448;32.074;2023-04-06T05:17:55;9.55;;;7.25;;
52035;SDS011;38046;49.448;32.074;2023-04-06T05:20:20;10.98;;;7.63;;
52035;SDS011;38046;49.448;32.074;2023-04-06T05:22:46;9.90;;;7.32;;
52035;SDS011;38046;49.448;32.074;2023-04-06T05:25:12;10.13;;;7.50;;
52035;SDS011;38046;49.448;32.074;2023-04-06T05:27:39;12.50;;;7.93;;
52035;SDS011;38046;49.448;32.074;2023-04-06T05:30:05;12.05;;;8.43;;
52035;SDS011;38046;49.448;32.074;2023-04-06T05:32:32;11.25;;;8.10;;
52035;SDS011;38046;49.448;32.074;2023-04-06T05:34:58;12.63;;;9.05;;
52035;SDS011;38046;49.448;32.074;2023-04-06T05:37:23;14.55;;;9.43;;
52035;SDS011;38046;49.448;32.074;2023-04-06T05:39:49;15.65;;;9.15;;
52035;SDS011;38046;49.448;32.074;2023-04-06T05:42:15;14.80;;;9.10;;
52035;SDS011;38046;49.448;32.074;2023-04-06T05:44:41;13.73;;;9.13;;
52035;SDS011;38046;49.448;32.074;2023-04-06T05:47:07;16.88;;;9.90;;
52035;SDS011;38046;49.448;32.074;2023-04-06T05:49:33;16.73;;;9.48;;
52035;SDS011;38046;49.448;32.074;2023-04-06T05:51:59;14.93;;;10.07;;
52035;SDS011;38046;49.448;32.074;2023-04-06T05:54:25;16.25;;;9.68;;
52035;SDS011;38046;49.448;32.074;2023-04-06T05:56:51;15.63;;;9.80;;
52035;SDS011;38046;49.448;32.074;2023-04-06T05:59:16;15.50;;;10.18;;
52035;SDS011;38046;49.448;32.074;2023-04-06T06:01:42;17.15;;;10.15;;
52035;SDS011;38046;49.448;32.074;2023-04-06T06:04:07;14.93;;;9.90;;
52035;SDS011;38046;49.448;32.074;2023-04-06T06:06:33;14.57;;;9.50;;
52035;SDS011;38046;49.448;32.074;2023-04-06T06:08:59;15.57;;;9.60;;
52035;SDS011;38046;49.448;32.074;2023-04-06T06:11:26;15.70;;;9.38;;
52035;SDS011;38046;49.448;32.074;2023-04-06T06:13:52;13.77;;;9.82;;
52035;SDS011;38046;49.448;32.074;2023-04-06T06:16:18;13.68;;;9.55;;
52035;SDS011;38046;49.448;32.074;2023-04-06T06:18:44;14.38;;;9.73;;
52035;SDS011;38046;49.448;32.074;2023-04-06T06:21:10;15.18;;;11.15;;
52035;SDS011;38046;49.448;32.074;2023-04-06T06:23:41;15.70;;;9.85;;
52035;SDS011;38046;49.448;32.074;2023-04-06T06:26:07;13.10;;;9.48;;
52035;SDS011;38046;49.448;32.074;2023-04-06T06:28:33;14.20;;;9.45;;
52035;SDS011;38046;49.448;32.074;2023-04-06T06:30:58;18.20;;;10.60;;
52035;SDS011;38046;49.448;32.074;2023-04-06T06:33:24;15.25;;;10.00;;
52035;SDS011;38046;49.448;32.074;2023-04-06T06:35:51;14.30;;;9.52;;
52035;SDS011;38046;49.448;32.074;2023-04-06T06:38:17;16.02;;;10.18;;
52035;SDS011;38046;49.448;32.074;2023-04-06T06:40:43;15.68;;;10.38;;
52035;SDS011;38046;49.448;32.074;2023-04-06T06:43:09;17.35;;;10.30;;
52035;SDS011;38046;49.448;32.074;2023-04-06T06:45:35;14.13;;;10.20;;
52035;SDS011;38046;49.448;32.074;2023-04-06T06:48:01;16.63;;;10.52;;
52035;SDS011;38046;49.448;32.074;2023-04-06T06:50:27;17.45;;;11.23;;
52035;SDS011;38046;49.448;32.074;2023-04-06T06:52:52;17.80;;;11.68;;
52035;SDS011;38046;49.448;32.074;2023-04-06T06:55:18;17.55;;;11.18;;
52035;SDS011;38046;49.448;32.074;2023-04-06T06:57:44;18.52;;;12.15;;
52035;SDS011;38046;49.448;32.074;2023-04-06T07:00:11;16.92;;;11.43;;
52035;SDS011;38046;49.448;32.074;2023-04-06T07:02:38;16.08;;;11.77;;
52035;SDS011;38046;49.448;32.074;2023-04-06T07:05:04;16.70;;;11.93;;
52035;SDS011;38046;49.448;32.074;2023-04-06T07:07:33;17.45;;;11.95;;
52035;SDS011;38046;49.448;32.074;2023-04-06T07:09:59;16.98;;;11.25;;
52035;SDS011;38046;49.448;32.074;2023-04-06T07:12:26;15.93;;;11.52;;
52035;SDS011;38046;49.448;32.074;2023-04-06T07:14:51;18.63;;;11.30;;
52035;SDS011;38046;49.448;32.074;2023-04-06T07:17:17;17.85;;;12.27;;
52035;SDS011;38046;49.448;32.074;2023-04-06T07:19:43;15.70;;;11.80;;
52035;SDS011;38046;49.448;32.074;2023-04-06T07:22:10;16.48;;;11.13;;
52035;SDS011;38046;49.448;32.074;2023-04-06T07:24:35;16.48;;;11.32;;
52035;SDS011;38046;49.448;32.074;2023-04-06T07:27:01;18.65;;;10.95;;
52035;SDS011;38046;49.448;32.074;2023-04-06T07:29:27;15.18;;;11.20;;
52035;SDS011;38046;49.448;32.074;2023-04-06T07:31:53;16.25;;;11.55;;
52035;SDS011;38046;49.448;32.074;2023-04-06T07:34:19;15.27;;;10.98;;
52035;SDS011;38046;49.448;32.074;2023-04-06T07:36:45;14.70;;;10.65;;
52035;SDS011;38046;49.448;32.074;2023-04-06T07:39:11;16.77;;;11.50;;
52035;SDS011;38046;49.448;32.074;2023-04-06T07:41:37;13.02;;;10.13;;
52035;SDS011;38046;49.448;32.074;2023-04-06T07:44:03;15.02;;;10.50;;
52035;SDS011;38046;49.448;32.074;2023-04-06T07:46:29;15.65;;;10.43;;
52035;SDS011;38046;49.448;32.074;2023-04-06T07:48:59;16.27;;;10.73;;
52035;SDS011;38046;49.448;32.074;2023-04-06T07:51:25;18.00;;;11.43;;
52035;SDS011;38046;49.448;32.074;2023-04-06T07:53:51;16.35;;;10.55;;
52035;SDS011;38046;49.448;32.074;2023-04-06T07:56:17;18.13;;;11.48;;
52035;SDS011;38046;49.448;32.074;2023-04-06T07:58:43;17.63;;;10.35;;
52035;SDS011;38046;49.448;32.074;2023-04-06T08:01:09;16.67;;;10.25;;
52035;SDS011;38046;49.448;32.074;2023-04-06T08:03:35;17.30;;;10.10;;
52035;SDS011;38046;49.448;32.074;2023-04-06T08:06:01;17.63;;;9.93;;
52035;SDS011;38046;49.448;32.074;2023-04-06T08:08:28;12.57;;;9.65;;
52035;SDS011;38046;49.448;32.074;2023-04-06T08:10:54;15.43;;;9.63;;
52035;SDS011;38046;49.448;32.074;2023-04-06T08:13:19;10.50;;;7.55;;
52035;SDS011;38046;49.448;32.074;2023-04-06T08:15:45;11.27;;;8.13;;
52035;SDS011;38046;49.448;32.074;2023-04-06T08:18:11;12.18;;;8.43;;
52035;SDS011;38046;49.448;32.074;2023-04-06T08:20:37;11.55;;;8.85;;
52035;SDS011;38046;49.448;32.074;2023-04-06T08:23:03;11.80;;;8.57;;
52035;SDS011;38046;49.448;32.074;2023-04-06T08:25:29;14.25;;;9.00;;
52035;SDS011;38046;49.448;32.074;2023-04-06T08:27:54;13.48;;;9.05;;
52035;SDS011;38046;49.448;32.074;2023-04-06T08:30:20;14.45;;;8.60;;
52035;SDS011;38046;49.448;32.074;2023-04-06T08:32:46;10.25;;;7.72;;
52035;SDS011;38046;49.448;32.074;2023-04-06T08:35:12;10.65;;;7.88;;
52035;SDS011;38046;49.448;32.074;2023-04-06T08:37:38;13.70;;;7.47;;
52035;SDS011;38046;49.448;32.074;2023-04-06T08:40:04;11.00;;;7.07;;
52035;SDS011;38046;49.448;32.074;2023-04-06T08:42:35;9.75;;;7.13;;
52035;SDS011;38046;49.448;32.074;2023-04-06T08:45:06;10.07;;;6.65;;
52035;SDS011;38046;49.448;32.074;2023-04-06T08:47:34;9.45;;;6.95;;
52035;SDS011;38046;49.448;32.074;2023-04-06T08:50:02;8.88;;;6.22;;
52035;SDS011;38046;49.448;32.074;2023-04-06T08:52:29;9.00;;;6.40;;
52035;SDS011;38046;49.448;32.074;2023-04-06T08:54:57;7.72;;;5.70;;
52035;SDS011;38046;49.448;32.074;2023-04-06T08:57:23;9.88;;;6.32;;
52035;SDS011;38046;49.448;32.074;2023-04-06T08:59:51;8.68;;;5.95;;
52035;SDS011;38046;49.448;32.074;2023-04-06T09:02:18;9.18;;;6.78;;
52035;SDS011;38046;49.448;32.074;2023-04-06T09:04:45;8.65;;;6.40;;
52035;SDS011;38046;49.448;32.074;2023-04-06T09:07:13;10.88;;;6.90;;
52035;SDS011;38046;49.448;32.074;2023-04-06T09:09:40;9.27;;;5.90;;
52035;SDS011;38046;49.448;32.074;2023-04-06T09:12:21;9.43;;;7.05;;
52035;SDS011;38046;49.448;32.074;2023-04-06T09:14:48;10.45;;;7.18;;
52035;SDS011;38046;49.448;32.074;2023-04-06T09:17:24;9.18;;;6.30;;
52035;SDS011;38046;49.448;32.074;2023-04-06T09:19:54;10.50;;;7.70;;
52035;SDS011;38046;49.448;32.074;2023-04-06T09:22:21;10.68;;;6.65;;
52035;SDS011;38046;49.448;32.074;2023-04-06T09:24:48;10.18;;;7.05;;
52035;SDS011;38046;49.448;32.074;2023-04-06T09:27:19;9.63;;;6.82;;
52035;SDS011;38046;49.448;32.074;2023-04-06T09:30:08;12.55;;;6.70;;
52035;SDS011;38046;49.448;32.074;2023-04-06T09:32:49;9.35;;;6.22;;
52035;SDS011;38046;49.448;32.074;2023-04-06T09:35:19;11.03;;;6.60;;
52035;SDS011;38046;49.448;32.074;2023-04-06T09:37:46;11.88;;;7.10;;
52035;SDS011;38046;49.448;32.074;2023-04-06T09:40:13;9.43;;;7.22;;
52035;SDS011;38046;49.448;32.074;2023-04-06T09:42:42;10.60;;;6.50;;
52035;SDS011;38046;49.448;32.074;2023-04-06T09:45:10;10.18;;;6.95;;
52035;SDS011;38046;49.448;32.074;2023-04-06T09:47:36;9.75;;;7.13;;
52035;SDS011;38046;49.448;32.074;2023-04-06T09:50:05;9.38;;;7.05;;
52035;SDS011;38046;49.448;32.074;2023-04-06T09:52:35;10.27;;;7.05;;
52035;SDS011;38046;49.448;32.074;2023-04-06T09:55:06;8.88;;;6.53;;
52035;SDS011;38046;49.448;32.074;2023-04-06T10:00:14;11.63;;;7.82;;
52035;SDS011;38046;49.448;32.074;2023-04-06T10:05:37;9.85;;;6.93;;
52035;SDS011;38046;49.448;32.074;2023-04-06T10:08:09;9.65;;;7.35;;
52035;SDS011;38046;49.448;32.074;2023-04-06T10:10:35;10.82;;;7.55;;
52035;SDS011;38046;49.448;32.074;2023-04-06T10:13:02;11.68;;;7.53;;
52035;SDS011;38046;49.448;32.074;2023-04-06T10:15:30;9.27;;;6.75;;
52035;SDS011;38046;49.448;32.074;2023-04-06T10:17:56;8.20;;;6.35;;
52035;SDS011;38046;49.448;32.074;2023-04-06T10:20:27;13.25;;;7.90;;
52035;SDS011;38046;49.448;32.074;2023-04-06T10:23:05;10.07;;;7.82;;
52035;SDS011;38046;49.448;32.074;2023-04-06T10:25:40;9.82;;;7.35;;
52035;SDS011;38046;49.448;32.074;2023-04-06T10:28:20;12.38;;;7.70;;
52035;SDS011;38046;49.448;32.074;2023-04-06T10:30:46;10.50;;;7.88;;
52035;SDS011;38046;49.448;32.074;2023-04-06T10:33:13;9.80;;;7.47;;
52035;SDS011;38046;49.448;32.074;2023-04-06T10:35:39;11.02;;;7.45;;
52035;SDS011;38046;49.448;32.074;2023-04-06T10:38:05;9.85;;;7.80;;
52035;SDS011;38046;49.448;32.074;2023-04-06T10:40:31;9.45;;;7.82;;
52035;SDS011;38046;49.448;32.074;2023-04-06T10:43:06;10.23;;;7.97;;
52035;SDS011;38046;49.448;32.074;2023-04-06T10:45:57;9.75;;;7.63;;
52035;SDS011;38046;49.448;32.074;2023-04-06T10:48:25;10.43;;;7.75;;
52035;SDS011;38046;49.448;32.074;2023-04-06T10:51:12;11.15;;;7.35;;
52035;SDS011;38046;49.448;32.074;2023-04-06T10:53:43;12.50;;;7.80;;
52035;SDS011;38046;49.448;32.074;2023-04-06T10:56:13;12.05;;;7.25;;
52035;SDS011;38046;49.448;32.074;2023-04-06T10:58:44;11.50;;;7.47;;
52035;SDS011;38046;49.448;32.074;2023-04-06T11:01:14;10.77;;;7.00;;
52035;SDS011;38046;49.448;32.074;2023-04-06T11:03:45;12.07;;;7.35;;
52035;SDS011;38046;49.448;32.074;2023-04-06T11:06:21;8.88;;;6.93;;
52035;SDS011;38046;49.448;32.074;2023-04-06T11:08:51;12.50;;;7.13;;
52035;SDS011;38046;49.448;32.074;2023-04-06T11:11:19;9.23;;;6.47;;
52035;SDS011;38046;49.448;32.074;2023-04-06T11:13:53;10.18;;;6.75;;
52035;SDS011;38046;49.448;32.074;2023-04-06T11:16:32;10.38;;;7.07;;
52035;SDS011;38046;49.448;32.074;2023-04-06T11:18:58;9.32;;;6.47;;
52035;SDS011;38046;49.448;32.074;2023-04-06T11:21:45;9.75;;;6.65;;
52035;SDS011;38046;49.448;32.074;2023-04-06T11:24:16;11.15;;;6.90;;
52035;SDS011;38046;49.448;32.074;2023-04-06T11:29:17;8.57;;;6.18;;
52035;SDS011;38046;49.448;32.074;2023-04-06T11:34:23;7.82;;;5.97;;
52035;SDS011;38046;49.448;32.074;2023-04-06T11:36:59;8.63;;;5.43;;
52035;SDS011;38046;49.448;32.074;2023-04-06T11:39:27;7.80;;;5.45;;
52035;SDS011;38046;49.448;32.074;2023-04-06T11:41:56;8.45;;;5.57;;
52035;SDS011;38046;49.448;32.074;2023-04-06T11:44:31;7.43;;;5.70;;
52035;SDS011;38046;49.448;32.074;2023-04-06T11:46:59;7.68;;;5.30;;
52035;SDS011;38046;49.448;32.074;2023-04-06T11:49:29;6.13;;;5.03;;
52035;SDS011;38046;49.448;32.074;2023-04-06T11:51:56;6.07;;;4.25;;
52035;SDS011;38046;49.448;32.074;2023-04-06T11:54:33;6.82;;;5.00;;
52035;SDS011;38046;49.448;32.074;2023-04-06T11:57:05;6.78;;;4.80;;
52035;SDS011;38046;49.448;32.074;2023-04-06T11:59:31;8.73;;;5.18;;
52035;SDS011;38046;49.448;32.074;2023-04-06T12:01:57;6.38;;;5.25;;
52035;SDS011;38046;49.448;32.074;2023-04-06T12:04:23;7.82;;;5.10;;
52035;SDS011;38046;49.448;32.074;2023-04-06T12:06:49;7.43;;;5.20;;
52035;SDS011;38046;49.448;32.074;2023-04-06T12:09:16;8.05;;;5.53;;
52035;SDS011;38046;49.448;32.074;2023-04-06T12:11:45;6.57;;;4.95;;
52035;SDS011;38046;49.448;32.074;2023-04-06T12:14:11;7.13;;;4.82;;
52035;SDS011;38046;49.448;32.074;2023-04-06T12:16:37;8.57;;;5.45;;
52035;SDS011;38046;49.448;32.074;2023-04-06T12:19:03;7.13;;;5.07;;
52035;SDS011;38046;49.448;32.074;2023-04-06T12:21:32;7.22;;;4.93;;
52035;SDS011;38046;49.448;32.074;2023-04-06T12:24:00;7.55;;;5.00;;
52035;SDS011;38046;49.448;32.074;2023-04-06T12:26:26;5.95;;;4.30;;
52035;SDS011;38046;49.448;32.074;2023-04-06T12:28:52;8.20;;;5.60;;
52035;SDS011;38046;49.448;32.074;2023-04-06T12:31:18;6.47;;;4.60;;
52035;SDS011;38046;49.448;32.074;2023-04-06T12:33:49;5.78;;;4.55;;
52035;SDS011;38046;49.448;32.074;2023-04-06T12:36:15;6.78;;;4.35;;
52035;SDS011;38046;49.448;32.074;2023-04-06T12:38:49;5.47;;;4.32;;
52035;SDS011;38046;49.448;32.074;2023-04-06T12:41:15;5.10;;;3.90;;
52035;SDS011;38046;49.448;32.074;2023-04-06T12:43:42;4.95;;;3.90;;
52035;SDS011;38046;49.448;32.074;2023-04-06T12:46:08;5.35;;;3.72;;
52035;SDS011;38046;49.448;32.074;2023-04-06T12:48:34;4.75;;;3.55;;
52035;SDS011;38046;49.448;32.074;2023-04-06T12:51:04;5.32;;;3.83;;
52035;SDS011;38046;49.448;32.074;2023-04-06T12:53:30;4.65;;;3.47;;
52035;SDS011;38046;49.448;32.074;2023-04-06T12:55:57;5.35;;;3.67;;
52035;SDS011;38046;49.448;32.074;2023-04-06T12:58:23;5.50;;;3.90;;
52035;SDS011;38046;49.448;32.074;2023-04-06T13:00:51;5.22;;;3.70;;
52035;SDS011;38046;49.448;32.074;2023-04-06T13:03:20;4.28;;;3.60;;
52035;SDS011;38046;49.448;32.074;2023-04-06T13:05:47;4.75;;;3.28;;
52035;SDS011;38046;49.448;32.074;2023-04-06T13:08:15;4.82;;;3.55;;
52035;SDS011;38046;49.448;32.074;2023-04-06T13:10:48;5.22;;;3.60;;
52035;SDS011;38046;49.448;32.074;2023-04-06T13:13:14;6.65;;;3.60;;
52035;SDS011;38046;49.448;32.074;2023-04-06T13:15:40;5.18;;;3.50;;
52035;SDS011;38046;49.448;32.074;2023-04-06T13:18:06;3.80;;;2.92;;
52035;SDS011;38046;49.448;32.074;2023-04-06T13:20:32;4.72;;;3.75;;
52035;SDS011;38046;49.448;32.074;2023-04-06T13:22:58;4.28;;;3.30;;
52035;SDS011;38046;49.448;32.074;2023-04-06T13:25:24;4.05;;;3.50;;
52035;SDS011;38046;49.448;32.074;2023-04-06T13:27:50;4.43;;;3.42;;
52035;SDS011;38046;49.448;32.074;2023-04-06T13:30:15;3.88;;;3.15;;
52035;SDS011;38046;49.448;32.074;2023-04-06T13:32:41;4.65;;;3.28;;
52035;SDS011;38046;49.448;32.074;2023-04-06T13:35:07;4.97;;;3.30;;
52035;SDS011;38046;49.448;32.074;2023-04-06T13:37:34;4.07;;;3.08;;
52035;SDS011;38046;49.448;32.074;2023-04-06T13:40:00;4.53;;;3.22;;
52035;SDS011;38046;49.448;32.074;2023-04-06T13:42:27;3.45;;;2.80;;
52035;SDS011;38046;49.448;32.074;2023-04-06T13:44:53;4.28;;;3.50;;
52035;SDS011;38046;49.448;32.074;2023-04-06T13:47:19;3.20;;;2.72;;
52035;SDS011;38046;49.448;32.074;2023-04-06T13:49:45;4.15;;;2.90;;
52035;SDS011;38046;49.448;32.074;2023-04-06T13:52:12;3.00;;;2.67;;
52035;SDS011;38046;49.448;32.074;2023-04-06T13:54:37;4.22;;;3.33;;
52035;SDS011;38046;49.448;32.074;2023-04-06T13:57:03;3.50;;;2.78;;
52035;SDS011;38046;49.448;32.074;2023-04-06T13:59:33;4.05;;;2.95;;
52035;SDS011;38046;49.448;32.074;2023-04-06T14:02:02;3.75;;;2.90;;
52035;SDS011;38046;49.448;32.074;2023-04-06T14:04:29;4.00;;;2.90;;
52035;SDS011;38046;49.448;32.074;2023-04-06T14:06:55;2.90;;;2.50;;
52035;SDS011;38046;49.448;32.074;2023-04-06T14:09:21;4.15;;;3.22;;
52035;SDS011;38046;49.448;32.074;2023-04-06T14:11:48;3.78;;;3.03;;
52035;SDS011;38046;49.448;32.074;2023-04-06T14:14:14;3.85;;;2.72;;
52035;SDS011;38046;49.448;32.074;2023-04-06T14:16:40;3.67;;;2.78;;
52035;SDS011;38046;49.448;32.074;2023-04-06T14:19:08;3.08;;;2.35;;
52035;SDS011;38046;49.448;32.074;2023-04-06T14:21:36;3.20;;;2.60;;
52035;SDS011;38046;49.448;32.074;2023-04-06T14:24:02;3.15;;;2.60;;
52035;SDS011;38046;49.448;32.074;2023-04-06T14:26:28;2.58;;;2.30;;
52035;SDS011;38046;49.448;32.074;2023-04-06T14:28:54;2.92;;;2.53;;
52035;SDS011;38046;49.448;32.074;2023-04-06T14:31:20;3.58;;;2.58;;
52035;SDS011;38046;49.448;32.074;2023-04-06T14:33:46;2.90;;;2.50;;
52035;SDS011;38046;49.448;32.074;2023-04-06T14:36:12;3.42;;;2.30;;
52035;SDS011;38046;49.448;32.074;2023-04-06T14:38:37;3.55;;;2.50;;